sensor_id;sensor_type;location;lat;lon;timestamp;P1;durP1;ratioP1;P2;durP2;ratioP2
55037;SDS011;40937;53.594;10.034;2024-03-17T00:00:34;22.33;;;4.65;;
55037;SDS011;40937;53.594;10.034;2024-03-17T00:03:00;23.42;;;4.80;;
55037;SDS011;40937;53.594;10.034;2024-03-17T00:05:28;19.70;;;4.03;;
55037;SDS011;40937;53.594;10.034;2024-03-17T00:07:57;22.27;;;4.53;;
55037;SDS011;40937;53.594;10.034;2024-03-17T00:10:28;23.08;;;4.90;;
55037;SDS011;40937;53.594;10.034;2024-03-17T00:12:54;22.33;;;4.45;;
55037;SDS011;40937;53.594;10.034;2024-03-17T00:15:26;23.88;;;4.82;;
55037;SDS011;40937;53.594;10.034;2024-03-17T00:17:57;23.33;;;4.72;;
55037;SDS011;40937;53.594;10.034;2024-03-17T00:20:25;21.17;;;4.95;;
55037;SDS011;40937;53.594;10.034;2024-03-17T00:22:51;16.05;;;4.15;;
55037;SDS011;40937;53.594;10.034;2024-03-17T00:25:21;16.25;;;4.65;;
55037;SDS011;40937;53.594;10.034;2024-03-17T00:27:48;32.72;;;5.20;;
55037;SDS011;40937;53.594;10.034;2024-03-17T00:30:16;23.27;;;4.60;;
55037;SDS011;40937;53.594;10.034;2024-03-17T00:32:43;22.58;;;5.50;;
55037;SDS011;40937;53.594;10.034;2024-03-17T00:35:18;22.48;;;5.47;;
55037;SDS011;40937;53.594;10.034;2024-03-17T00:37:46;33.00;;;5.38;;
55037;SDS011;40937;53.594;10.034;2024-03-17T00:40:14;16.73;;;4.00;;
55037;SDS011;40937;53.594;10.034;2024-03-17T00:42:47;23.98;;;4.93;;
55037;SDS011;40937;53.594;10.034;2024-03-17T00:45:15;21.10;;;3.80;;
55037;SDS011;40937;53.594;10.034;2024-03-17T00:47:45;18.45;;;6.13;;
55037;SDS011;40937;53.594;10.034;2024-03-17T00:50:15;23.20;;;4.93;;
55037;SDS011;40937;53.594;10.034;2024-03-17T00:52:43;21.55;;;4.60;;
55037;SDS011;40937;53.594;10.034;2024-03-17T00:55:13;18.77;;;3.67;;
55037;SDS011;40937;53.594;10.034;2024-03-17T00:57:40;22.52;;;4.50;;
55037;SDS011;40937;53.594;10.034;2024-03-17T01:00:11;21.45;;;4.22;;
55037;SDS011;40937;53.594;10.034;2024-03-17T01:02:38;26.85;;;4.32;;
55037;SDS011;40937;53.594;10.034;2024-03-17T01:05:06;20.88;;;4.07;;
55037;SDS011;40937;53.594;10.034;2024-03-17T01:07:36;26.50;;;5.72;;
55037;SDS011;40937;53.594;10.034;2024-03-17T01:10:07;33.28;;;4.97;;
55037;SDS011;40937;53.594;10.034;2024-03-17T01:12:41;21.65;;;4.28;;
55037;SDS011;40937;53.594;10.034;2024-03-17T01:15:09;23.67;;;4.63;;
55037;SDS011;40937;53.594;10.034;2024-03-17T01:17:37;28.00;;;4.95;;
55037;SDS011;40937;53.594;10.034;2024-03-17T01:20:04;18.85;;;3.63;;
55037;SDS011;40937;53.594;10.034;2024-03-17T01:22:37;23.63;;;4.90;;
55037;SDS011;40937;53.594;10.034;2024-03-17T01:25:10;18.63;;;4.35;;
55037;SDS011;40937;53.594;10.034;2024-03-17T01:27:40;26.13;;;4.45;;
55037;SDS011;40937;53.594;10.034;2024-03-17T01:30:08;21.75;;;4.57;;
55037;SDS011;40937;53.594;10.034;2024-03-17T01:32:36;17.33;;;4.28;;
55037;SDS011;40937;53.594;10.034;2024-03-17T01:35:05;17.15;;;3.78;;
55037;SDS011;40937;53.594;10.034;2024-03-17T01:37:34;16.65;;;4.45;;
55037;SDS011;40937;53.594;10.034;2024-03-17T01:40:00;28.77;;;5.28;;
55037;SDS011;40937;53.594;10.034;2024-03-17T01:42:29;23.35;;;4.60;;
55037;SDS011;40937;53.594;10.034;2024-03-17T01:44:55;20.55;;;4.05;;
55037;SDS011;40937;53.594;10.034;2024-03-17T01:47:26;19.50;;;3.92;;
55037;SDS011;40937;53.594;10.034;2024-03-17T01:49:53;24.67;;;4.95;;
55037;SDS011;40937;53.594;10.034;2024-03-17T01:52:26;21.20;;;4.38;;
55037;SDS011;40937;53.594;10.034;2024-03-17T01:54:53;24.15;;;4.55;;
55037;SDS011;40937;53.594;10.034;2024-03-17T01:57:20;24.08;;;4.50;;
55037;SDS011;40937;53.594;10.034;2024-03-17T01:59:48;22.02;;;4.03;;
55037;SDS011;40937;53.594;10.034;2024-03-17T02:02:16;27.27;;;5.13;;
55037;SDS011;40937;53.594;10.034;2024-03-17T02:04:42;18.95;;;4.80;;
55037;SDS011;40937;53.594;10.034;2024-03-17T02:07:12;22.80;;;4.72;;
55037;SDS011;40937;53.594;10.034;2024-03-17T02:09:40;21.27;;;4.72;;
55037;SDS011;40937;53.594;10.034;2024-03-17T02:12:09;22.77;;;5.03;;
55037;SDS011;40937;53.594;10.034;2024-03-17T02:14:37;11.75;;;3.78;;
55037;SDS011;40937;53.594;10.034;2024-03-17T02:17:06;16.38;;;3.67;;
55037;SDS011;40937;53.594;10.034;2024-03-17T02:19:34;22.85;;;4.10;;
55037;SDS011;40937;53.594;10.034;2024-03-17T02:22:01;19.98;;;4.78;;
55037;SDS011;40937;53.594;10.034;2024-03-17T02:24:30;25.95;;;4.00;;
55037;SDS011;40937;53.594;10.034;2024-03-17T02:27:00;18.90;;;4.20;;
55037;SDS011;40937;53.594;10.034;2024-03-17T02:29:27;19.48;;;4.80;;
55037;SDS011;40937;53.594;10.034;2024-03-17T02:31:58;19.50;;;3.80;;
55037;SDS011;40937;53.594;10.034;2024-03-17T02:34:29;14.63;;;3.70;;
55037;SDS011;40937;53.594;10.034;2024-03-17T02:36:57;28.20;;;4.90;;
55037;SDS011;40937;53.594;10.034;2024-03-17T02:39:23;28.55;;;4.03;;
55037;SDS011;40937;53.594;10.034;2024-03-17T02:44:47;23.17;;;4.50;;
55037;SDS011;40937;53.594;10.034;2024-03-17T02:47:16;16.80;;;3.88;;
55037;SDS011;40937;53.594;10.034;2024-03-17T02:49:44;13.55;;;3.47;;
55037;SDS011;40937;53.594;10.034;2024-03-17T02:52:17;20.58;;;4.18;;
55037;SDS011;40937;53.594;10.034;2024-03-17T02:54:47;16.73;;;4.10;;
55037;SDS011;40937;53.594;10.034;2024-03-17T02:57:17;22.05;;;4.40;;
55037;SDS011;40937;53.594;10.034;2024-03-17T02:59:46;18.58;;;4.20;;
55037;SDS011;40937;53.594;10.034;2024-03-17T03:02:20;25.98;;;4.35;;
55037;SDS011;40937;53.594;10.034;2024-03-17T03:04:47;19.98;;;4.25;;
55037;SDS011;40937;53.594;10.034;2024-03-17T03:07:15;28.10;;;3.63;;
55037;SDS011;40937;53.594;10.034;2024-03-17T03:09:47;20.67;;;4.40;;
55037;SDS011;40937;53.594;10.034;2024-03-17T03:12:15;20.63;;;3.63;;
55037;SDS011;40937;53.594;10.034;2024-03-17T03:14:42;13.63;;;3.67;;
55037;SDS011;40937;53.594;10.034;2024-03-17T03:17:11;20.77;;;4.22;;
55037;SDS011;40937;53.594;10.034;2024-03-17T03:19:42;26.00;;;4.07;;
55037;SDS011;40937;53.594;10.034;2024-03-17T03:22:12;25.50;;;4.63;;
55037;SDS011;40937;53.594;10.034;2024-03-17T03:24:40;22.40;;;4.38;;
55037;SDS011;40937;53.594;10.034;2024-03-17T03:27:14;32.58;;;4.95;;
55037;SDS011;40937;53.594;10.034;2024-03-17T03:29:43;24.05;;;4.55;;
55037;SDS011;40937;53.594;10.034;2024-03-17T03:32:16;20.35;;;4.15;;
55037;SDS011;40937;53.594;10.034;2024-03-17T03:34:48;17.65;;;3.97;;
55037;SDS011;40937;53.594;10.034;2024-03-17T03:37:21;16.70;;;3.65;;
55037;SDS011;40937;53.594;10.034;2024-03-17T03:39:48;15.13;;;3.65;;
55037;SDS011;40937;53.594;10.034;2024-03-17T03:42:17;13.30;;;3.03;;
55037;SDS011;40937;53.594;10.034;2024-03-17T03:44:46;24.38;;;4.18;;
55037;SDS011;40937;53.594;10.034;2024-03-17T03:47:19;22.05;;;4.47;;
55037;SDS011;40937;53.594;10.034;2024-03-17T03:49:47;20.38;;;4.45;;
55037;SDS011;40937;53.594;10.034;2024-03-17T03:52:26;16.30;;;4.25;;
55037;SDS011;40937;53.594;10.034;2024-03-17T03:54:53;21.00;;;4.57;;
55037;SDS011;40937;53.594;10.034;2024-03-17T03:57:21;15.23;;;4.38;;
55037;SDS011;40937;53.594;10.034;2024-03-17T03:59:51;16.52;;;3.78;;
55037;SDS011;40937;53.594;10.034;2024-03-17T04:02:20;22.30;;;4.30;;
55037;SDS011;40937;53.594;10.034;2024-03-17T04:04:48;19.90;;;4.07;;
55037;SDS011;40937;53.594;10.034;2024-03-17T04:07:16;17.77;;;4.50;;
55037;SDS011;40937;53.594;10.034;2024-03-17T04:09:43;19.65;;;4.60;;
55037;SDS011;40937;53.594;10.034;2024-03-17T04:12:11;20.80;;;4.13;;
55037;SDS011;40937;53.594;10.034;2024-03-17T04:14:41;19.45;;;4.18;;
55037;SDS011;40937;53.594;10.034;2024-03-17T04:17:10;19.25;;;4.35;;
55037;SDS011;40937;53.594;10.034;2024-03-17T04:19:39;30.98;;;4.18;;
55037;SDS011;40937;53.594;10.034;2024-03-17T04:22:10;21.75;;;3.85;;
55037;SDS011;40937;53.594;10.034;2024-03-17T04:24:40;21.30;;;4.22;;
55037;SDS011;40937;53.594;10.034;2024-03-17T04:27:10;18.48;;;4.38;;
55037;SDS011;40937;53.594;10.034;2024-03-17T04:29:39;15.57;;;4.35;;
55037;SDS011;40937;53.594;10.034;2024-03-17T04:32:07;21.13;;;3.92;;
55037;SDS011;40937;53.594;10.034;2024-03-17T04:34:37;19.45;;;4.35;;
55037;SDS011;40937;53.594;10.034;2024-03-17T04:37:06;23.23;;;5.05;;
55037;SDS011;40937;53.594;10.034;2024-03-17T04:39:34;24.65;;;4.38;;
55037;SDS011;40937;53.594;10.034;2024-03-17T04:42:04;19.67;;;4.63;;
55037;SDS011;40937;53.594;10.034;2024-03-17T04:44:31;17.15;;;4.10;;
55037;SDS011;40937;53.594;10.034;2024-03-17T04:46:59;22.23;;;4.07;;
55037;SDS011;40937;53.594;10.034;2024-03-17T04:49:35;20.38;;;4.22;;
55037;SDS011;40937;53.594;10.034;2024-03-17T04:52:03;15.25;;;4.03;;
55037;SDS011;40937;53.594;10.034;2024-03-17T04:54:33;25.08;;;4.50;;
55037;SDS011;40937;53.594;10.034;2024-03-17T04:57:05;15.85;;;4.13;;
55037;SDS011;40937;53.594;10.034;2024-03-17T04:59:34;24.85;;;5.32;;
55037;SDS011;40937;53.594;10.034;2024-03-17T05:02:04;22.30;;;4.22;;
55037;SDS011;40937;53.594;10.034;2024-03-17T05:04:31;31.42;;;4.28;;
55037;SDS011;40937;53.594;10.034;2024-03-17T05:06:59;22.27;;;4.45;;
55037;SDS011;40937;53.594;10.034;2024-03-17T05:09:26;11.48;;;3.63;;
55037;SDS011;40937;53.594;10.034;2024-03-17T05:11:55;21.00;;;4.60;;
55037;SDS011;40937;53.594;10.034;2024-03-17T05:14:22;20.17;;;4.32;;
55037;SDS011;40937;53.594;10.034;2024-03-17T05:16:52;22.50;;;4.38;;
55037;SDS011;40937;53.594;10.034;2024-03-17T05:19:21;18.70;;;4.45;;
55037;SDS011;40937;53.594;10.034;2024-03-17T05:21:49;19.00;;;4.65;;
55037;SDS011;40937;53.594;10.034;2024-03-17T05:24:20;21.90;;;4.72;;
55037;SDS011;40937;53.594;10.034;2024-03-17T05:26:51;19.20;;;4.53;;
55037;SDS011;40937;53.594;10.034;2024-03-17T05:29:24;21.17;;;4.57;;
55037;SDS011;40937;53.594;10.034;2024-03-17T05:31:52;23.08;;;5.82;;
55037;SDS011;40937;53.594;10.034;2024-03-17T05:34:22;19.75;;;4.22;;
55037;SDS011;40937;53.594;10.034;2024-03-17T05:36:50;22.77;;;4.53;;
55037;SDS011;40937;53.594;10.034;2024-03-17T05:39:21;22.15;;;4.28;;
55037;SDS011;40937;53.594;10.034;2024-03-17T05:41:48;23.15;;;5.10;;
55037;SDS011;40937;53.594;10.034;2024-03-17T05:44:21;13.85;;;4.50;;
55037;SDS011;40937;53.594;10.034;2024-03-17T05:46:52;19.83;;;4.95;;
55037;SDS011;40937;53.594;10.034;2024-03-17T05:49:25;18.88;;;4.35;;
55037;SDS011;40937;53.594;10.034;2024-03-17T05:51:53;20.92;;;4.75;;
55037;SDS011;40937;53.594;10.034;2024-03-17T05:54:20;13.40;;;4.75;;
55037;SDS011;40937;53.594;10.034;2024-03-17T05:56:48;25.13;;;4.88;;
55037;SDS011;40937;53.594;10.034;2024-03-17T05:59:18;17.10;;;4.82;;
55037;SDS011;40937;53.594;10.034;2024-03-17T06:01:46;19.10;;;5.05;;
55037;SDS011;40937;53.594;10.034;2024-03-17T06:04:15;25.55;;;5.57;;
55037;SDS011;40937;53.594;10.034;2024-03-17T06:06:46;20.35;;;5.43;;
55037;SDS011;40937;53.594;10.034;2024-03-17T06:09:16;16.80;;;4.90;;
55037;SDS011;40937;53.594;10.034;2024-03-17T06:11:45;20.83;;;5.25;;
55037;SDS011;40937;53.594;10.034;2024-03-17T06:14:16;23.67;;;5.85;;
55037;SDS011;40937;53.594;10.034;2024-03-17T06:16:46;22.70;;;5.50;;
55037;SDS011;40937;53.594;10.034;2024-03-17T06:19:20;23.70;;;6.70;;
55037;SDS011;40937;53.594;10.034;2024-03-17T06:21:48;21.08;;;6.32;;
55037;SDS011;40937;53.594;10.034;2024-03-17T06:24:19;24.83;;;5.43;;
55037;SDS011;40937;53.594;10.034;2024-03-17T06:26:47;12.68;;;4.90;;
55037;SDS011;40937;53.594;10.034;2024-03-17T06:31:47;14.00;;;4.07;;
55037;SDS011;40937;53.594;10.034;2024-03-17T06:34:17;16.33;;;4.45;;
55037;SDS011;40937;53.594;10.034;2024-03-17T06:36:44;16.50;;;4.57;;
55037;SDS011;40937;53.594;10.034;2024-03-17T06:39:14;20.23;;;4.13;;
55037;SDS011;40937;53.594;10.034;2024-03-17T06:41:47;17.17;;;4.60;;
55037;SDS011;40937;53.594;10.034;2024-03-17T06:44:14;17.25;;;4.47;;
55037;SDS011;40937;53.594;10.034;2024-03-17T06:46:44;16.33;;;4.13;;
55037;SDS011;40937;53.594;10.034;2024-03-17T06:49:12;20.92;;;4.28;;
55037;SDS011;40937;53.594;10.034;2024-03-17T06:51:44;20.77;;;5.03;;
55037;SDS011;40937;53.594;10.034;2024-03-17T06:54:12;21.20;;;4.73;;
55037;SDS011;40937;53.594;10.034;2024-03-17T06:56:40;17.90;;;4.43;;
55037;SDS011;40937;53.594;10.034;2024-03-17T06:59:09;16.05;;;3.95;;
55037;SDS011;40937;53.594;10.034;2024-03-17T07:01:37;18.52;;;4.35;;
55037;SDS011;40937;53.594;10.034;2024-03-17T07:04:05;18.75;;;4.57;;
55037;SDS011;40937;53.594;10.034;2024-03-17T07:06:35;15.98;;;4.63;;
55037;SDS011;40937;53.594;10.034;2024-03-17T07:09:04;15.13;;;3.50;;
55037;SDS011;40937;53.594;10.034;2024-03-17T07:11:37;18.27;;;4.53;;
55037;SDS011;40937;53.594;10.034;2024-03-17T07:14:04;17.10;;;4.50;;
55037;SDS011;40937;53.594;10.034;2024-03-17T07:16:34;14.60;;;4.00;;
55037;SDS011;40937;53.594;10.034;2024-03-17T07:19:02;16.73;;;3.97;;
55037;SDS011;40937;53.594;10.034;2024-03-17T07:21:31;12.18;;;3.65;;
55037;SDS011;40937;53.594;10.034;2024-03-17T07:23:59;20.38;;;5.07;;
55037;SDS011;40937;53.594;10.034;2024-03-17T07:26:31;15.40;;;4.13;;
55037;SDS011;40937;53.594;10.034;2024-03-17T07:28:58;26.70;;;4.25;;
55037;SDS011;40937;53.594;10.034;2024-03-17T07:31:26;13.98;;;3.33;;
55037;SDS011;40937;53.594;10.034;2024-03-17T07:33:56;13.23;;;4.22;;
55037;SDS011;40937;53.594;10.034;2024-03-17T07:36:23;15.95;;;3.50;;
55037;SDS011;40937;53.594;10.034;2024-03-17T07:38:51;10.13;;;3.47;;
55037;SDS011;40937;53.594;10.034;2024-03-17T07:41:22;24.58;;;4.30;;
55037;SDS011;40937;53.594;10.034;2024-03-17T07:43:53;18.55;;;3.75;;
55037;SDS011;40937;53.594;10.034;2024-03-17T07:46:23;13.77;;;3.72;;
55037;SDS011;40937;53.594;10.034;2024-03-17T07:48:50;14.30;;;3.30;;
55037;SDS011;40937;53.594;10.034;2024-03-17T07:51:18;16.75;;;3.38;;
55037;SDS011;40937;53.594;10.034;2024-03-17T07:53:47;15.70;;;4.68;;
55037;SDS011;40937;53.594;10.034;2024-03-17T07:56:15;12.18;;;3.85;;
55037;SDS011;40937;53.594;10.034;2024-03-17T07:58:53;13.32;;;3.65;;
55037;SDS011;40937;53.594;10.034;2024-03-17T08:01:21;19.88;;;3.65;;
55037;SDS011;40937;53.594;10.034;2024-03-17T08:03:48;9.63;;;3.03;;
55037;SDS011;40937;53.594;10.034;2024-03-17T08:06:21;14.15;;;3.83;;
55037;SDS011;40937;53.594;10.034;2024-03-17T08:08:49;10.65;;;3.22;;
55037;SDS011;40937;53.594;10.034;2024-03-17T08:11:16;13.93;;;2.88;;
55037;SDS011;40937;53.594;10.034;2024-03-17T08:13:43;17.88;;;3.47;;
55037;SDS011;40937;53.594;10.034;2024-03-17T08:16:12;9.70;;;2.90;;
55037;SDS011;40937;53.594;10.034;2024-03-17T08:18:41;15.70;;;3.28;;
55037;SDS011;40937;53.594;10.034;2024-03-17T08:21:08;12.88;;;2.22;;
55037;SDS011;40937;53.594;10.034;2024-03-17T08:23:38;15.38;;;3.15;;
55037;SDS011;40937;53.594;10.034;2024-03-17T08:26:08;11.10;;;2.78;;
55037;SDS011;40937;53.594;10.034;2024-03-17T08:28:36;16.42;;;8.68;;
55037;SDS011;40937;53.594;10.034;2024-03-17T08:31:03;12.73;;;3.47;;
55037;SDS011;40937;53.594;10.034;2024-03-17T08:33:32;9.82;;;3.03;;
55037;SDS011;40937;53.594;10.034;2024-03-17T08:36:00;10.82;;;2.47;;
55037;SDS011;40937;53.594;10.034;2024-03-17T08:38:28;9.82;;;2.67;;
55037;SDS011;40937;53.594;10.034;2024-03-17T08:41:01;11.57;;;3.20;;
55037;SDS011;40937;53.594;10.034;2024-03-17T08:43:29;14.38;;;3.10;;
55037;SDS011;40937;53.594;10.034;2024-03-17T08:45:56;16.33;;;2.67;;
55037;SDS011;40937;53.594;10.034;2024-03-17T08:48:27;16.90;;;2.72;;
55037;SDS011;40937;53.594;10.034;2024-03-17T08:50:56;20.73;;;3.63;;
55037;SDS011;40937;53.594;10.034;2024-03-17T08:53:23;11.57;;;2.75;;
55037;SDS011;40937;53.594;10.034;2024-03-17T08:55:52;12.27;;;3.20;;
55037;SDS011;40937;53.594;10.034;2024-03-17T08:58:19;14.35;;;3.15;;
55037;SDS011;40937;53.594;10.034;2024-03-17T09:00:47;9.38;;;2.53;;
55037;SDS011;40937;53.594;10.034;2024-03-17T09:03:17;10.10;;;2.45;;
55037;SDS011;40937;53.594;10.034;2024-03-17T09:05:45;15.07;;;2.38;;
55037;SDS011;40937;53.594;10.034;2024-03-17T09:08:15;9.00;;;2.30;;
55037;SDS011;40937;53.594;10.034;2024-03-17T09:10:46;8.75;;;2.90;;
55037;SDS011;40937;53.594;10.034;2024-03-17T09:13:14;10.32;;;2.95;;
55037;SDS011;40937;53.594;10.034;2024-03-17T09:15:49;12.05;;;3.00;;
55037;SDS011;40937;53.594;10.034;2024-03-17T09:18:17;10.15;;;2.63;;
55037;SDS011;40937;53.594;10.034;2024-03-17T09:20:44;10.43;;;2.38;;
55037;SDS011;40937;53.594;10.034;2024-03-17T09:23:12;12.85;;;3.03;;
55037;SDS011;40937;53.594;10.034;2024-03-17T09:25:41;8.07;;;2.80;;
55037;SDS011;40937;53.594;10.034;2024-03-17T09:28:08;11.45;;;2.90;;
55037;SDS011;40937;53.594;10.034;2024-03-17T09:30:35;11.40;;;2.35;;
55037;SDS011;40937;53.594;10.034;2024-03-17T09:33:02;9.77;;;2.28;;
55037;SDS011;40937;53.594;10.034;2024-03-17T09:35:30;10.18;;;2.95;;
55037;SDS011;40937;53.594;10.034;2024-03-17T09:37:58;8.50;;;2.80;;
55037;SDS011;40937;53.594;10.034;2024-03-17T09:40:25;14.07;;;3.20;;
55037;SDS011;40937;53.594;10.034;2024-03-17T09:42:54;23.23;;;3.42;;
55037;SDS011;40937;53.594;10.034;2024-03-17T09:45:25;14.45;;;3.38;;
55037;SDS011;40937;53.594;10.034;2024-03-17T09:47:57;11.00;;;3.22;;
55037;SDS011;40937;53.594;10.034;2024-03-17T09:50:24;15.25;;;4.50;;
55037;SDS011;40937;53.594;10.034;2024-03-17T09:52:52;20.38;;;3.67;;
55037;SDS011;40937;53.594;10.034;2024-03-17T09:55:19;16.67;;;3.40;;
55037;SDS011;40937;53.594;10.034;2024-03-17T09:57:46;13.73;;;3.65;;
55037;SDS011;40937;53.594;10.034;2024-03-17T10:00:15;13.90;;;3.08;;
55037;SDS011;40937;53.594;10.034;2024-03-17T10:02:43;15.55;;;3.38;;
55037;SDS011;40937;53.594;10.034;2024-03-17T10:05:20;10.15;;;2.58;;
55037;SDS011;40937;53.594;10.034;2024-03-17T10:07:49;16.08;;;3.42;;
55037;SDS011;40937;53.594;10.034;2024-03-17T10:10:17;12.60;;;3.15;;
55037;SDS011;40937;53.594;10.034;2024-03-17T10:12:49;11.52;;;2.83;;
55037;SDS011;40937;53.594;10.034;2024-03-17T10:15:19;12.73;;;2.88;;
55037;SDS011;40937;53.594;10.034;2024-03-17T10:17:47;16.45;;;3.38;;
55037;SDS011;40937;53.594;10.034;2024-03-17T10:20:15;10.23;;;2.88;;
55037;SDS011;40937;53.594;10.034;2024-03-17T10:22:57;14.18;;;3.03;;
55037;SDS011;40937;53.594;10.034;2024-03-17T10:25:29;9.93;;;3.33;;
55037;SDS011;40937;53.594;10.034;2024-03-17T10:27:57;14.05;;;3.75;;
55037;SDS011;40937;53.594;10.034;2024-03-17T10:30:28;12.27;;;2.47;;
55037;SDS011;40937;53.594;10.034;2024-03-17T10:32:56;17.58;;;3.70;;
55037;SDS011;40937;53.594;10.034;2024-03-17T10:35:29;9.80;;;2.58;;
55037;SDS011;40937;53.594;10.034;2024-03-17T10:37:58;19.33;;;4.43;;
55037;SDS011;40937;53.594;10.034;2024-03-17T10:40:26;8.57;;;2.55;;
55037;SDS011;40937;53.594;10.034;2024-03-17T10:42:55;10.88;;;2.35;;
55037;SDS011;40937;53.594;10.034;2024-03-17T10:45:25;12.23;;;2.50;;
55037;SDS011;40937;53.594;10.034;2024-03-17T10:47:54;10.90;;;2.60;;
55037;SDS011;40937;53.594;10.034;2024-03-17T10:50:21;8.20;;;2.83;;
55037;SDS011;40937;53.594;10.034;2024-03-17T10:52:50;13.98;;;3.47;;
55037;SDS011;40937;53.594;10.034;2024-03-17T10:55:21;7.07;;;2.65;;
55037;SDS011;40937;53.594;10.034;2024-03-17T10:57:50;7.50;;;2.17;;
55037;SDS011;40937;53.594;10.034;2024-03-17T11:00:19;10.15;;;2.33;;
55037;SDS011;40937;53.594;10.034;2024-03-17T11:02:49;9.43;;;2.78;;
55037;SDS011;40937;53.594;10.034;2024-03-17T11:05:20;9.18;;;2.20;;
55037;SDS011;40937;53.594;10.034;2024-03-17T11:07:50;11.82;;;3.20;;
55037;SDS011;40937;53.594;10.034;2024-03-17T11:10:21;14.40;;;2.80;;
55037;SDS011;40937;53.594;10.034;2024-03-17T11:12:56;13.50;;;2.92;;
55037;SDS011;40937;53.594;10.034;2024-03-17T11:15:36;12.45;;;3.40;;
55037;SDS011;40937;53.594;10.034;2024-03-17T11:21:10;8.65;;;2.78;;
55037;SDS011;40937;53.594;10.034;2024-03-17T11:23:57;11.38;;;3.17;;
55037;SDS011;40937;53.594;10.034;2024-03-17T11:26:29;11.93;;;2.75;;
55037;SDS011;40937;53.594;10.034;2024-03-17T11:28:58;10.02;;;2.97;;
55037;SDS011;40937;53.594;10.034;2024-03-17T11:31:33;8.55;;;2.40;;
55037;SDS011;40937;53.594;10.034;2024-03-17T11:34:01;9.50;;;2.80;;
55037;SDS011;40937;53.594;10.034;2024-03-17T11:36:37;10.57;;;2.42;;
55037;SDS011;40937;53.594;10.034;2024-03-17T11:39:04;7.95;;;2.60;;
55037;SDS011;40937;53.594;10.034;2024-03-17T11:41:35;7.57;;;2.70;;
55037;SDS011;40937;53.594;10.034;2024-03-17T11:46:53;6.80;;;2.25;;
55037;SDS011;40937;53.594;10.034;2024-03-17T11:49:20;11.57;;;3.28;;
55037;SDS011;40937;53.594;10.034;2024-03-17T11:51:50;10.77;;;2.63;;
55037;SDS011;40937;53.594;10.034;2024-03-17T11:54:17;11.68;;;2.72;;
55037;SDS011;40937;53.594;10.034;2024-03-17T11:56:46;8.57;;;2.53;;
55037;SDS011;40937;53.594;10.034;2024-03-17T11:59:13;12.05;;;3.28;;
55037;SDS011;40937;53.594;10.034;2024-03-17T12:01:43;9.13;;;2.85;;
55037;SDS011;40937;53.594;10.034;2024-03-17T12:04:11;8.60;;;2.47;;
55037;SDS011;40937;53.594;10.034;2024-03-17T12:06:41;8.02;;;2.28;;
55037;SDS011;40937;53.594;10.034;2024-03-17T12:09:14;11.38;;;3.13;;
55037;SDS011;40937;53.594;10.034;2024-03-17T12:11:46;11.63;;;3.10;;
55037;SDS011;40937;53.594;10.034;2024-03-17T12:14:16;11.77;;;2.90;;
55037;SDS011;40937;53.594;10.034;2024-03-17T12:16:46;8.18;;;2.97;;
55037;SDS011;40937;53.594;10.034;2024-03-17T12:19:14;8.73;;;2.63;;
55037;SDS011;40937;53.594;10.034;2024-03-17T12:21:43;6.90;;;2.25;;
55037;SDS011;40937;53.594;10.034;2024-03-17T12:24:15;8.13;;;2.65;;
55037;SDS011;40937;53.594;10.034;2024-03-17T12:26:43;7.47;;;2.53;;
55037;SDS011;40937;53.594;10.034;2024-03-17T12:29:24;5.78;;;2.10;;
55037;SDS011;40937;53.594;10.034;2024-03-17T12:31:53;5.47;;;2.10;;
55037;SDS011;40937;53.594;10.034;2024-03-17T12:34:22;9.80;;;2.60;;
55037;SDS011;40937;53.594;10.034;2024-03-17T12:36:51;5.32;;;2.15;;
55037;SDS011;40937;53.594;10.034;2024-03-17T12:39:22;7.90;;;1.92;;
55037;SDS011;40937;53.594;10.034;2024-03-17T12:42:01;9.10;;;2.78;;
55037;SDS011;40937;53.594;10.034;2024-03-17T12:44:29;10.93;;;2.60;;
55037;SDS011;40937;53.594;10.034;2024-03-17T12:46:56;8.25;;;2.65;;
55037;SDS011;40937;53.594;10.034;2024-03-17T12:49:26;6.85;;;1.98;;
55037;SDS011;40937;53.594;10.034;2024-03-17T12:51:53;8.02;;;2.20;;
55037;SDS011;40937;53.594;10.034;2024-03-17T12:54:23;6.32;;;2.67;;
55037;SDS011;40937;53.594;10.034;2024-03-17T12:56:50;7.05;;;2.00;;
55037;SDS011;40937;53.594;10.034;2024-03-17T12:59:42;7.53;;;2.38;;
55037;SDS011;40937;53.594;10.034;2024-03-17T13:02:27;9.00;;;2.35;;
55037;SDS011;40937;53.594;10.034;2024-03-17T13:07:49;7.70;;;2.78;;
55037;SDS011;40937;53.594;10.034;2024-03-17T13:10:19;8.55;;;2.47;;
55037;SDS011;40937;53.594;10.034;2024-03-17T13:12:46;5.82;;;2.50;;
55037;SDS011;40937;53.594;10.034;2024-03-17T13:15:15;6.45;;;2.28;;
55037;SDS011;40937;53.594;10.034;2024-03-17T13:17:44;6.38;;;2.47;;
55037;SDS011;40937;53.594;10.034;2024-03-17T13:20:12;9.57;;;2.78;;
55037;SDS011;40937;53.594;10.034;2024-03-17T13:22:40;6.25;;;2.38;;
55037;SDS011;40937;53.594;10.034;2024-03-17T13:25:11;7.10;;;2.20;;
55037;SDS011;40937;53.594;10.034;2024-03-17T13:27:42;10.13;;;2.80;;
55037;SDS011;40937;53.594;10.034;2024-03-17T13:30:10;11.75;;;3.13;;
55037;SDS011;40937;53.594;10.034;2024-03-17T13:32:38;10.52;;;2.85;;
55037;SDS011;40937;53.594;10.034;2024-03-17T13:35:14;12.93;;;2.90;;
55037;SDS011;40937;53.594;10.034;2024-03-17T13:37:43;7.40;;;2.63;;
55037;SDS011;40937;53.594;10.034;2024-03-17T13:40:11;6.68;;;2.60;;
55037;SDS011;40937;53.594;10.034;2024-03-17T13:42:43;10.32;;;2.83;;
55037;SDS011;40937;53.594;10.034;2024-03-17T13:45:11;9.93;;;2.63;;
55037;SDS011;40937;53.594;10.034;2024-03-17T13:47:39;9.40;;;3.40;;
55037;SDS011;40937;53.594;10.034;2024-03-17T13:50:07;8.07;;;2.85;;
55037;SDS011;40937;53.594;10.034;2024-03-17T13:52:38;8.05;;;2.50;;
55037;SDS011;40937;53.594;10.034;2024-03-17T13:55:06;7.28;;;2.45;;
55037;SDS011;40937;53.594;10.034;2024-03-17T14:00:07;6.80;;;3.10;;
55037;SDS011;40937;53.594;10.034;2024-03-17T14:02:38;8.52;;;3.15;;
55037;SDS011;40937;53.594;10.034;2024-03-17T14:05:06;7.03;;;3.17;;
55037;SDS011;40937;53.594;10.034;2024-03-17T14:07:33;10.32;;;3.05;;
55037;SDS011;40937;53.594;10.034;2024-03-17T14:10:00;8.75;;;2.78;;
55037;SDS011;40937;53.594;10.034;2024-03-17T14:12:28;11.98;;;3.35;;
55037;SDS011;40937;53.594;10.034;2024-03-17T14:14:57;12.30;;;2.83;;
55037;SDS011;40937;53.594;10.034;2024-03-17T14:17:26;6.45;;;2.38;;
55037;SDS011;40937;53.594;10.034;2024-03-17T14:19:53;9.40;;;2.72;;
55037;SDS011;40937;53.594;10.034;2024-03-17T14:22:20;8.20;;;2.65;;
55037;SDS011;40937;53.594;10.034;2024-03-17T14:24:50;10.38;;;2.90;;
55037;SDS011;40937;53.594;10.034;2024-03-17T14:27:17;9.43;;;3.47;;
55037;SDS011;40937;53.594;10.034;2024-03-17T14:29:46;10.10;;;2.28;;
55037;SDS011;40937;53.594;10.034;2024-03-17T14:32:13;8.02;;;2.85;;
55037;SDS011;40937;53.594;10.034;2024-03-17T14:34:42;9.45;;;2.75;;
55037;SDS011;40937;53.594;10.034;2024-03-17T14:37:09;7.50;;;2.95;;
55037;SDS011;40937;53.594;10.034;2024-03-17T14:39:37;15.23;;;3.20;;
55037;SDS011;40937;53.594;10.034;2024-03-17T14:42:05;14.13;;;2.83;;
55037;SDS011;40937;53.594;10.034;2024-03-17T14:44:34;8.30;;;2.50;;
55037;SDS011;40937;53.594;10.034;2024-03-17T14:47:02;8.52;;;2.97;;
55037;SDS011;40937;53.594;10.034;2024-03-17T14:49:30;8.30;;;3.13;;
55037;SDS011;40937;53.594;10.034;2024-03-17T14:51:59;5.40;;;2.10;;